sensor_id;sensor_type;location;lat;lon;timestamp;P1;durP1;ratioP1;P2;durP2;ratioP2
84818;SDS011;75053;51.080;13.712;2024-01-30T00:02:09;31.97;;;17.27;;
84818;SDS011;75053;51.080;13.712;2024-01-30T00:04:35;27.03;;;16.10;;
84818;SDS011;75053;51.080;13.712;2024-01-30T00:07:03;36.10;;;18.10;;
84818;SDS011;75053;51.080;13.712;2024-01-30T00:09:29;27.07;;;16.43;;
84818;SDS011;75053;51.080;13.712;2024-01-30T00:11:54;31.43;;;17.37;;
84818;SDS011;75053;51.080;13.712;2024-01-30T00:14:20;35.60;;;17.37;;
84818;SDS011;75053;51.080;13.712;2024-01-30T00:16:45;28.47;;;16.07;;
84818;SDS011;75053;51.080;13.712;2024-01-30T00:19:11;25.77;;;15.70;;
84818;SDS011;75053;51.080;13.712;2024-01-30T00:21:37;31.83;;;15.30;;
84818;SDS011;75053;51.080;13.712;2024-01-30T00:24:02;27.53;;;15.30;;
84818;SDS011;75053;51.080;13.712;2024-01-30T00:26:28;27.17;;;15.73;;
84818;SDS011;75053;51.080;13.712;2024-01-30T00:28:53;33.37;;;16.50;;
84818;SDS011;75053;51.080;13.712;2024-01-30T00:31:19;34.33;;;16.90;;
84818;SDS011;75053;51.080;13.712;2024-01-30T00:33:44;25.53;;;15.83;;
84818;SDS011;75053;51.080;13.712;2024-01-30T00:36:10;31.60;;;15.93;;
84818;SDS011;75053;51.080;13.712;2024-01-30T00:38:36;26.47;;;15.33;;
84818;SDS011;75053;51.080;13.712;2024-01-30T00:41:04;36.00;;;18.50;;
84818;SDS011;75053;51.080;13.712;2024-01-30T00:43:31;29.30;;;16.33;;
84818;SDS011;75053;51.080;13.712;2024-01-30T00:45:56;28.37;;;17.43;;
84818;SDS011;75053;51.080;13.712;2024-01-30T00:48:23;25.83;;;15.67;;
84818;SDS011;75053;51.080;13.712;2024-01-30T00:50:48;28.43;;;16.43;;
84818;SDS011;75053;51.080;13.712;2024-01-30T00:53:14;33.53;;;17.63;;
84818;SDS011;75053;51.080;13.712;2024-01-30T00:55:39;30.43;;;16.73;;
84818;SDS011;75053;51.080;13.712;2024-01-30T00:58:05;33.63;;;16.33;;
84818;SDS011;75053;51.080;13.712;2024-01-30T01:00:30;32.23;;;16.03;;
84818;SDS011;75053;51.080;13.712;2024-01-30T01:02:57;31.87;;;16.17;;
84818;SDS011;75053;51.080;13.712;2024-01-30T01:05:23;27.40;;;16.57;;
84818;SDS011;75053;51.080;13.712;2024-01-30T01:07:48;27.07;;;15.77;;
84818;SDS011;75053;51.080;13.712;2024-01-30T01:12:53;27.30;;;15.93;;
84818;SDS011;75053;51.080;13.712;2024-01-30T01:15:18;31.37;;;16.30;;
84818;SDS011;75053;51.080;13.712;2024-01-30T01:17:44;31.23;;;15.53;;
84818;SDS011;75053;51.080;13.712;2024-01-30T01:20:09;30.43;;;15.43;;
84818;SDS011;75053;51.080;13.712;2024-01-30T01:22:35;27.53;;;14.43;;
84818;SDS011;75053;51.080;13.712;2024-01-30T01:25:01;32.00;;;15.87;;
84818;SDS011;75053;51.080;13.712;2024-01-30T01:27:26;29.33;;;14.43;;
84818;SDS011;75053;51.080;13.712;2024-01-30T01:29:52;23.23;;;14.47;;
84818;SDS011;75053;51.080;13.712;2024-01-30T01:32:18;26.63;;;15.50;;
84818;SDS011;75053;51.080;13.712;2024-01-30T01:34:44;27.70;;;15.73;;
84818;SDS011;75053;51.080;13.712;2024-01-30T01:37:09;29.00;;;15.07;;
84818;SDS011;75053;51.080;13.712;2024-01-30T01:39:35;33.47;;;15.77;;
84818;SDS011;75053;51.080;13.712;2024-01-30T01:42:04;24.40;;;15.07;;
84818;SDS011;75053;51.080;13.712;2024-01-30T01:44:29;28.13;;;15.93;;
84818;SDS011;75053;51.080;13.712;2024-01-30T01:46:55;23.13;;;14.20;;
84818;SDS011;75053;51.080;13.712;2024-01-30T01:49:26;25.03;;;15.70;;
84818;SDS011;75053;51.080;13.712;2024-01-30T01:51:54;30.43;;;15.10;;
84818;SDS011;75053;51.080;13.712;2024-01-30T01:54:23;26.23;;;15.20;;
84818;SDS011;75053;51.080;13.712;2024-01-30T01:56:51;21.67;;;13.97;;
84818;SDS011;75053;51.080;13.712;2024-01-30T01:59:18;25.47;;;15.37;;
84818;SDS011;75053;51.080;13.712;2024-01-30T02:01:45;29.80;;;14.43;;
84818;SDS011;75053;51.080;13.712;2024-01-30T02:04:14;26.77;;;14.83;;
84818;SDS011;75053;51.080;13.712;2024-01-30T02:06:40;32.40;;;16.70;;
84818;SDS011;75053;51.080;13.712;2024-01-30T02:09:05;26.63;;;15.07;;
84818;SDS011;75053;51.080;13.712;2024-01-30T02:11:31;27.87;;;14.70;;
84818;SDS011;75053;51.080;13.712;2024-01-30T02:13:57;30.57;;;15.73;;
84818;SDS011;75053;51.080;13.712;2024-01-30T02:16:28;25.77;;;13.97;;
84818;SDS011;75053;51.080;13.712;2024-01-30T02:18:53;29.27;;;14.57;;
84818;SDS011;75053;51.080;13.712;2024-01-30T02:21:19;25.70;;;14.20;;
84818;SDS011;75053;51.080;13.712;2024-01-30T02:23:46;26.50;;;14.60;;
84818;SDS011;75053;51.080;13.712;2024-01-30T02:26:12;26.93;;;14.30;;
84818;SDS011;75053;51.080;13.712;2024-01-30T02:28:38;28.13;;;15.50;;
84818;SDS011;75053;51.080;13.712;2024-01-30T02:31:05;27.07;;;15.27;;
84818;SDS011;75053;51.080;13.712;2024-01-30T02:33:30;23.50;;;14.77;;
84818;SDS011;75053;51.080;13.712;2024-01-30T02:35:56;23.93;;;14.93;;
84818;SDS011;75053;51.080;13.712;2024-01-30T02:38:21;30.17;;;15.33;;
84818;SDS011;75053;51.080;13.712;2024-01-30T02:40:48;24.20;;;14.00;;
84818;SDS011;75053;51.080;13.712;2024-01-30T02:43:14;30.30;;;14.37;;
84818;SDS011;75053;51.080;13.712;2024-01-30T02:45:39;45.40;;;21.43;;
84818;SDS011;75053;51.080;13.712;2024-01-30T02:48:05;27.07;;;15.03;;
84818;SDS011;75053;51.080;13.712;2024-01-30T02:50:31;30.57;;;14.97;;
84818;SDS011;75053;51.080;13.712;2024-01-30T02:52:57;29.33;;;15.10;;
84818;SDS011;75053;51.080;13.712;2024-01-30T02:55:22;26.47;;;15.60;;
84818;SDS011;75053;51.080;13.712;2024-01-30T02:57:47;26.73;;;14.93;;
84818;SDS011;75053;51.080;13.712;2024-01-30T03:00:13;26.57;;;15.40;;
84818;SDS011;75053;51.080;13.712;2024-01-30T03:02:39;36.00;;;17.80;;
84818;SDS011;75053;51.080;13.712;2024-01-30T03:05:05;28.37;;;15.83;;
84818;SDS011;75053;51.080;13.712;2024-01-30T03:07:31;24.90;;;15.27;;
84818;SDS011;75053;51.080;13.712;2024-01-30T03:09:57;30.50;;;16.30;;
84818;SDS011;75053;51.080;13.712;2024-01-30T03:12:22;28.40;;;15.47;;
84818;SDS011;75053;51.080;13.712;2024-01-30T03:14:48;28.67;;;16.57;;
84818;SDS011;75053;51.080;13.712;2024-01-30T03:17:14;30.50;;;15.70;;
84818;SDS011;75053;51.080;13.712;2024-01-30T03:19:40;28.83;;;15.70;;
84818;SDS011;75053;51.080;13.712;2024-01-30T03:22:05;30.60;;;16.03;;
84818;SDS011;75053;51.080;13.712;2024-01-30T03:24:31;28.37;;;16.10;;
84818;SDS011;75053;51.080;13.712;2024-01-30T03:26:57;36.37;;;16.20;;
84818;SDS011;75053;51.080;13.712;2024-01-30T03:29:23;24.93;;;14.97;;
84818;SDS011;75053;51.080;13.712;2024-01-30T03:31:49;29.73;;;15.43;;
84818;SDS011;75053;51.080;13.712;2024-01-30T03:34:14;31.23;;;15.30;;
84818;SDS011;75053;51.080;13.712;2024-01-30T03:36:40;28.33;;;16.80;;
84818;SDS011;75053;51.080;13.712;2024-01-30T03:39:05;28.47;;;15.97;;
84818;SDS011;75053;51.080;13.712;2024-01-30T03:41:31;25.47;;;15.73;;
84818;SDS011;75053;51.080;13.712;2024-01-30T03:43:57;28.47;;;15.73;;
84818;SDS011;75053;51.080;13.712;2024-01-30T03:46:22;25.67;;;16.57;;
84818;SDS011;75053;51.080;13.712;2024-01-30T03:48:48;31.00;;;17.10;;
84818;SDS011;75053;51.080;13.712;2024-01-30T03:51:13;28.70;;;16.77;;
84818;SDS011;75053;51.080;13.712;2024-01-30T03:53:44;30.63;;;16.13;;
84818;SDS011;75053;51.080;13.712;2024-01-30T03:56:11;30.33;;;16.03;;
84818;SDS011;75053;51.080;13.712;2024-01-30T03:58:39;26.90;;;14.97;;
84818;SDS011;75053;51.080;13.712;2024-01-30T04:01:05;30.57;;;15.87;;
84818;SDS011;75053;51.080;13.712;2024-01-30T04:03:34;29.33;;;14.73;;
84818;SDS011;75053;51.080;13.712;2024-01-30T04:06:00;23.03;;;14.60;;
84818;SDS011;75053;51.080;13.712;2024-01-30T04:08:25;31.47;;;17.13;;
84818;SDS011;75053;51.080;13.712;2024-01-30T04:10:50;28.03;;;16.50;;
84818;SDS011;75053;51.080;13.712;2024-01-30T04:13:16;34.80;;;16.07;;
84818;SDS011;75053;51.080;13.712;2024-01-30T04:15:41;33.87;;;15.83;;
84818;SDS011;75053;51.080;13.712;2024-01-30T04:18:10;29.07;;;15.97;;
84818;SDS011;75053;51.080;13.712;2024-01-30T04:20:37;26.27;;;15.50;;
84818;SDS011;75053;51.080;13.712;2024-01-30T04:23:05;30.37;;;15.40;;
84818;SDS011;75053;51.080;13.712;2024-01-30T04:25:30;25.77;;;15.33;;
84818;SDS011;75053;51.080;13.712;2024-01-30T04:27:56;31.70;;;15.60;;
84818;SDS011;75053;51.080;13.712;2024-01-30T04:30:21;29.03;;;15.27;;
84818;SDS011;75053;51.080;13.712;2024-01-30T04:32:47;34.03;;;16.60;;
84818;SDS011;75053;51.080;13.712;2024-01-30T04:35:12;39.57;;;21.33;;
84818;SDS011;75053;51.080;13.712;2024-01-30T04:37:38;30.23;;;15.87;;
84818;SDS011;75053;51.080;13.712;2024-01-30T04:40:03;29.00;;;16.17;;
84818;SDS011;75053;51.080;13.712;2024-01-30T04:42:30;25.90;;;15.27;;
84818;SDS011;75053;51.080;13.712;2024-01-30T04:44:55;30.73;;;17.57;;
84818;SDS011;75053;51.080;13.712;2024-01-30T04:47:21;29.27;;;15.90;;
84818;SDS011;75053;51.080;13.712;2024-01-30T04:49:46;26.97;;;15.07;;
84818;SDS011;75053;51.080;13.712;2024-01-30T04:52:12;30.67;;;15.30;;
84818;SDS011;75053;51.080;13.712;2024-01-30T04:54:37;35.13;;;16.10;;
84818;SDS011;75053;51.080;13.712;2024-01-30T04:57:03;27.07;;;15.40;;
84818;SDS011;75053;51.080;13.712;2024-01-30T04:59:30;28.83;;;15.67;;
84818;SDS011;75053;51.080;13.712;2024-01-30T05:01:56;28.20;;;15.47;;
84818;SDS011;75053;51.080;13.712;2024-01-30T05:04:21;29.63;;;17.13;;
84818;SDS011;75053;51.080;13.712;2024-01-30T05:06:47;27.17;;;15.13;;
84818;SDS011;75053;51.080;13.712;2024-01-30T05:09:12;28.43;;;16.77;;
84818;SDS011;75053;51.080;13.712;2024-01-30T05:11:38;29.73;;;16.43;;
84818;SDS011;75053;51.080;13.712;2024-01-30T05:14:07;28.57;;;15.20;;
84818;SDS011;75053;51.080;13.712;2024-01-30T05:16:37;24.70;;;15.37;;
84818;SDS011;75053;51.080;13.712;2024-01-30T05:19:02;31.03;;;16.50;;
84818;SDS011;75053;51.080;13.712;2024-01-30T05:21:28;29.83;;;16.63;;
84818;SDS011;75053;51.080;13.712;2024-01-30T05:23:53;29.60;;;16.50;;
84818;SDS011;75053;51.080;13.712;2024-01-30T05:26:19;30.30;;;15.90;;
84818;SDS011;75053;51.080;13.712;2024-01-30T05:28:44;24.63;;;15.10;;
84818;SDS011;75053;51.080;13.712;2024-01-30T05:31:10;28.33;;;15.93;;
84818;SDS011;75053;51.080;13.712;2024-01-30T05:33:35;30.73;;;16.03;;
84818;SDS011;75053;51.080;13.712;2024-01-30T05:36:01;28.13;;;15.60;;
84818;SDS011;75053;51.080;13.712;2024-01-30T05:38:27;33.63;;;16.80;;
84818;SDS011;75053;51.080;13.712;2024-01-30T05:40:57;26.73;;;15.10;;
84818;SDS011;75053;51.080;13.712;2024-01-30T05:43:29;26.10;;;14.87;;
84818;SDS011;75053;51.080;13.712;2024-01-30T05:45:55;25.77;;;14.70;;
84818;SDS011;75053;51.080;13.712;2024-01-30T05:48:20;28.17;;;15.27;;
84818;SDS011;75053;51.080;13.712;2024-01-30T05:50:46;26.30;;;14.23;;
84818;SDS011;75053;51.080;13.712;2024-01-30T05:53:11;35.93;;;15.67;;
84818;SDS011;75053;51.080;13.712;2024-01-30T05:55:37;26.30;;;15.53;;
84818;SDS011;75053;51.080;13.712;2024-01-30T05:58:02;33.57;;;17.90;;
84818;SDS011;75053;51.080;13.712;2024-01-30T06:00:29;26.33;;;15.57;;
84818;SDS011;75053;51.080;13.712;2024-01-30T06:02:54;25.27;;;15.07;;
84818;SDS011;75053;51.080;13.712;2024-01-30T06:05:21;30.43;;;16.57;;
84818;SDS011;75053;51.080;13.712;2024-01-30T06:07:47;34.40;;;15.07;;
84818;SDS011;75053;51.080;13.712;2024-01-30T06:10:12;25.90;;;16.40;;
84818;SDS011;75053;51.080;13.712;2024-01-30T06:12:38;31.23;;;15.50;;
84818;SDS011;75053;51.080;13.712;2024-01-30T06:15:04;30.53;;;15.93;;
84818;SDS011;75053;51.080;13.712;2024-01-30T06:17:29;31.77;;;16.43;;
84818;SDS011;75053;51.080;13.712;2024-01-30T06:19:55;28.03;;;15.87;;
84818;SDS011;75053;51.080;13.712;2024-01-30T06:22:20;30.53;;;15.43;;
84818;SDS011;75053;51.080;13.712;2024-01-30T06:24:46;33.40;;;15.80;;
84818;SDS011;75053;51.080;13.712;2024-01-30T06:27:13;26.33;;;14.87;;
84818;SDS011;75053;51.080;13.712;2024-01-30T06:29:40;29.37;;;15.50;;
84818;SDS011;75053;51.080;13.712;2024-01-30T06:32:07;25.63;;;15.07;;
84818;SDS011;75053;51.080;13.712;2024-01-30T06:34:32;31.23;;;17.37;;
84818;SDS011;75053;51.080;13.712;2024-01-30T06:36:58;29.33;;;15.57;;
84818;SDS011;75053;51.080;13.712;2024-01-30T06:39:23;25.80;;;15.03;;
84818;SDS011;75053;51.080;13.712;2024-01-30T06:41:50;26.43;;;14.80;;
84818;SDS011;75053;51.080;13.712;2024-01-30T06:44:15;25.13;;;13.60;;
84818;SDS011;75053;51.080;13.712;2024-01-30T06:46:41;27.87;;;15.27;;
84818;SDS011;75053;51.080;13.712;2024-01-30T06:49:06;29.27;;;15.80;;
84818;SDS011;75053;51.080;13.712;2024-01-30T06:51:32;26.73;;;15.60;;
84818;SDS011;75053;51.080;13.712;2024-01-30T06:53:57;36.73;;;14.67;;
84818;SDS011;75053;51.080;13.712;2024-01-30T06:56:23;27.70;;;16.17;;
84818;SDS011;75053;51.080;13.712;2024-01-30T06:58:49;25.97;;;15.90;;
84818;SDS011;75053;51.080;13.712;2024-01-30T07:01:15;27.50;;;15.33;;
84818;SDS011;75053;51.080;13.712;2024-01-30T07:03:41;27.33;;;16.13;;
84818;SDS011;75053;51.080;13.712;2024-01-30T07:06:07;27.73;;;14.83;;
84818;SDS011;75053;51.080;13.712;2024-01-30T07:08:33;25.13;;;15.03;;
84818;SDS011;75053;51.080;13.712;2024-01-30T07:10:58;28.57;;;15.27;;
84818;SDS011;75053;51.080;13.712;2024-01-30T07:13:24;28.23;;;15.47;;
84818;SDS011;75053;51.080;13.712;2024-01-30T07:15:50;25.77;;;14.93;;
84818;SDS011;75053;51.080;13.712;2024-01-30T07:18:15;29.33;;;15.27;;
84818;SDS011;75053;51.080;13.712;2024-01-30T07:20:41;27.00;;;14.57;;
84818;SDS011;75053;51.080;13.712;2024-01-30T07:23:12;27.73;;;14.33;;
84818;SDS011;75053;51.080;13.712;2024-01-30T07:25:45;26.43;;;14.47;;
84818;SDS011;75053;51.080;13.712;2024-01-30T07:28:11;29.80;;;14.30;;
84818;SDS011;75053;51.080;13.712;2024-01-30T07:30:41;28.63;;;16.17;;
84818;SDS011;75053;51.080;13.712;2024-01-30T07:33:07;23.50;;;13.80;;
84818;SDS011;75053;51.080;13.712;2024-01-30T07:35:36;25.90;;;14.57;;
84818;SDS011;75053;51.080;13.712;2024-01-30T07:38:01;27.30;;;14.67;;
84818;SDS011;75053;51.080;13.712;2024-01-30T07:40:27;24.50;;;13.87;;
84818;SDS011;75053;51.080;13.712;2024-01-30T07:42:53;28.77;;;13.67;;
84818;SDS011;75053;51.080;13.712;2024-01-30T07:45:19;33.13;;;15.30;;
84818;SDS011;75053;51.080;13.712;2024-01-30T07:47:49;28.10;;;14.83;;
84818;SDS011;75053;51.080;13.712;2024-01-30T07:50:15;25.50;;;14.30;;
84818;SDS011;75053;51.080;13.712;2024-01-30T07:52:42;23.87;;;14.03;;
84818;SDS011;75053;51.080;13.712;2024-01-30T07:55:08;25.57;;;14.20;;
84818;SDS011;75053;51.080;13.712;2024-01-30T07:57:34;27.00;;;15.40;;
84818;SDS011;75053;51.080;13.712;2024-01-30T08:00:00;27.53;;;15.07;;
84818;SDS011;75053;51.080;13.712;2024-01-30T08:02:26;26.90;;;14.03;;
84818;SDS011;75053;51.080;13.712;2024-01-30T08:04:52;21.23;;;13.50;;
84818;SDS011;75053;51.080;13.712;2024-01-30T08:07:18;24.33;;;14.13;;
84818;SDS011;75053;51.080;13.712;2024-01-30T08:09:44;24.17;;;14.13;;
84818;SDS011;75053;51.080;13.712;2024-01-30T08:12:10;21.63;;;13.50;;
84818;SDS011;75053;51.080;13.712;2024-01-30T08:14:35;24.40;;;13.67;;
84818;SDS011;75053;51.080;13.712;2024-01-30T08:17:01;23.07;;;13.70;;
84818;SDS011;75053;51.080;13.712;2024-01-30T08:19:26;24.37;;;13.57;;
84818;SDS011;75053;51.080;13.712;2024-01-30T08:21:51;27.17;;;14.23;;
84818;SDS011;75053;51.080;13.712;2024-01-30T08:24:17;18.37;;;13.00;;
84818;SDS011;75053;51.080;13.712;2024-01-30T08:26:42;20.83;;;13.20;;
84818;SDS011;75053;51.080;13.712;2024-01-30T08:29:08;27.83;;;13.30;;
84818;SDS011;75053;51.080;13.712;2024-01-30T08:31:33;23.70;;;13.33;;
84818;SDS011;75053;51.080;13.712;2024-01-30T08:33:59;25.57;;;14.60;;
84818;SDS011;75053;51.080;13.712;2024-01-30T08:36:24;20.27;;;13.13;;
84818;SDS011;75053;51.080;13.712;2024-01-30T08:38:50;23.60;;;13.57;;
84818;SDS011;75053;51.080;13.712;2024-01-30T08:41:15;25.67;;;14.07;;
84818;SDS011;75053;51.080;13.712;2024-01-30T08:43:41;23.63;;;13.27;;
84818;SDS011;75053;51.080;13.712;2024-01-30T08:46:06;30.57;;;17.00;;
84818;SDS011;75053;51.080;13.712;2024-01-30T08:48:32;27.13;;;13.20;;
84818;SDS011;75053;51.080;13.712;2024-01-30T08:50:57;21.07;;;12.60;;
84818;SDS011;75053;51.080;13.712;2024-01-30T08:53:23;21.80;;;13.07;;
84818;SDS011;75053;51.080;13.712;2024-01-30T08:55:48;21.33;;;13.83;;
84818;SDS011;75053;51.080;13.712;2024-01-30T08:58:14;23.30;;;12.97;;
84818;SDS011;75053;51.080;13.712;2024-01-30T09:00:40;21.60;;;14.37;;
84818;SDS011;75053;51.080;13.712;2024-01-30T09:03:06;27.20;;;14.60;;
84818;SDS011;75053;51.080;13.712;2024-01-30T09:05:31;24.80;;;13.07;;
84818;SDS011;75053;51.080;13.712;2024-01-30T09:07:57;19.97;;;12.27;;
84818;SDS011;75053;51.080;13.712;2024-01-30T09:10:22;28.60;;;12.97;;
84818;SDS011;75053;51.080;13.712;2024-01-30T09:12:47;19.20;;;13.00;;
84818;SDS011;75053;51.080;13.712;2024-01-30T09:15:14;19.37;;;12.57;;
84818;SDS011;75053;51.080;13.712;2024-01-30T09:17:39;24.40;;;13.57;;
84818;SDS011;75053;51.080;13.712;2024-01-30T09:20:05;25.10;;;13.50;;
84818;SDS011;75053;51.080;13.712;2024-01-30T09:22:33;23.10;;;13.17;;
84818;SDS011;75053;51.080;13.712;2024-01-30T09:24:59;22.70;;;13.40;;
84818;SDS011;75053;51.080;13.712;2024-01-30T09:27:24;21.70;;;13.63;;
84818;SDS011;75053;51.080;13.712;2024-01-30T09:29:50;22.63;;;12.90;;
84818;SDS011;75053;51.080;13.712;2024-01-30T09:32:15;19.83;;;12.33;;
84818;SDS011;75053;51.080;13.712;2024-01-30T09:34:42;22.03;;;13.27;;
84818;SDS011;75053;51.080;13.712;2024-01-30T09:37:08;22.83;;;14.37;;
84818;SDS011;75053;51.080;13.712;2024-01-30T09:39:33;30.90;;;13.80;;
84818;SDS011;75053;51.080;13.712;2024-01-30T09:42:09;23.30;;;13.77;;
84818;SDS011;75053;51.080;13.712;2024-01-30T09:44:43;23.27;;;12.50;;
84818;SDS011;75053;51.080;13.712;2024-01-30T09:47:09;27.33;;;14.60;;
84818;SDS011;75053;51.080;13.712;2024-01-30T09:49:35;23.97;;;13.10;;
84818;SDS011;75053;51.080;13.712;2024-01-30T09:52:03;24.90;;;13.13;;
84818;SDS011;75053;51.080;13.712;2024-01-30T09:54:30;19.60;;;12.63;;
84818;SDS011;75053;51.080;13.712;2024-01-30T09:57:01;17.70;;;12.30;;
84818;SDS011;75053;51.080;13.712;2024-01-30T09:59:26;23.17;;;13.83;;
84818;SDS011;75053;51.080;13.712;2024-01-30T10:01:55;20.53;;;12.67;;
84818;SDS011;75053;51.080;13.712;2024-01-30T10:04:21;25.00;;;12.53;;
84818;SDS011;75053;51.080;13.712;2024-01-30T10:06:47;22.43;;;13.37;;
84818;SDS011;75053;51.080;13.712;2024-01-30T10:09:16;21.90;;;13.43;;
84818;SDS011;75053;51.080;13.712;2024-01-30T10:11:42;23.60;;;13.13;;
84818;SDS011;75053;51.080;13.712;2024-01-30T10:14:08;21.17;;;12.50;;
84818;SDS011;75053;51.080;13.712;2024-01-30T10:16:36;19.87;;;12.33;;
84818;SDS011;75053;51.080;13.712;2024-01-30T10:19:08;19.33;;;12.53;;
84818;SDS011;75053;51.080;13.712;2024-01-30T10:21:34;22.13;;;12.90;;
84818;SDS011;75053;51.080;13.712;2024-01-30T10:24:04;24.20;;;13.13;;
84818;SDS011;75053;51.080;13.712;2024-01-30T10:26:30;21.37;;;12.90;;
84818;SDS011;75053;51.080;13.712;2024-01-30T10:28:59;28.93;;;13.73;;
84818;SDS011;75053;51.080;13.712;2024-01-30T10:31:25;23.83;;;12.70;;
84818;SDS011;75053;51.080;13.712;2024-01-30T10:33:52;19.73;;;12.60;;
84818;SDS011;75053;51.080;13.712;2024-01-30T10:36:18;19.47;;;11.83;;
84818;SDS011;75053;51.080;13.712;2024-01-30T10:38:51;22.37;;;12.93;;
84818;SDS011;75053;51.080;13.712;2024-01-30T10:41:24;22.80;;;12.83;;
84818;SDS011;75053;51.080;13.712;2024-01-30T10:44:25;26.43;;;13.00;;
84818;SDS011;75053;51.080;13.712;2024-01-30T10:46:49;16.37;;;11.83;;
84818;SDS011;75053;51.080;13.712;2024-01-30T10:49:21;19.17;;;12.40;;
84818;SDS011;75053;51.080;13.712;2024-01-30T10:51:48;17.03;;;10.73;;
84818;SDS011;75053;51.080;13.712;2024-01-30T10:54:15;17.83;;;11.17;;
84818;SDS011;75053;51.080;13.712;2024-01-30T10:56:42;20.47;;;11.17;;
84818;SDS011;75053;51.080;13.712;2024-01-30T10:59:09;23.70;;;11.40;;
84818;SDS011;75053;51.080;13.712;2024-01-30T11:01:35;19.70;;;10.97;;
84818;SDS011;75053;51.080;13.712;2024-01-30T11:04:02;15.33;;;10.73;;
84818;SDS011;75053;51.080;13.712;2024-01-30T11:06:27;16.73;;;10.63;;
84818;SDS011;75053;51.080;13.712;2024-01-30T11:09:02;21.40;;;12.03;;
84818;SDS011;75053;51.080;13.712;2024-01-30T11:11:32;19.30;;;10.60;;
84818;SDS011;75053;51.080;13.712;2024-01-30T11:14:12;17.90;;;11.33;;
84818;SDS011;75053;51.080;13.712;2024-01-30T11:16:39;19.83;;;11.83;;
84818;SDS011;75053;51.080;13.712;2024-01-30T11:19:05;17.47;;;11.50;;
84818;SDS011;75053;51.080;13.712;2024-01-30T11:21:42;18.83;;;12.07;;
84818;SDS011;75053;51.080;13.712;2024-01-30T11:24:08;20.37;;;11.40;;
84818;SDS011;75053;51.080;13.712;2024-01-30T11:26:33;15.73;;;10.93;;
84818;SDS011;75053;51.080;13.712;2024-01-30T11:29:02;20.60;;;12.13;;
84818;SDS011;75053;51.080;13.712;2024-01-30T11:31:29;18.30;;;11.80;;
84818;SDS011;75053;51.080;13.712;2024-01-30T11:33:55;17.63;;;11.93;;
84818;SDS011;75053;51.080;13.712;2024-01-30T11:36:23;22.20;;;12.63;;
84818;SDS011;75053;51.080;13.712;2024-01-30T11:38:51;20.63;;;12.77;;
84818;SDS011;75053;51.080;13.712;2024-01-30T11:41:17;22.47;;;13.23;;
84818;SDS011;75053;51.080;13.712;2024-01-30T11:43:43;22.83;;;12.17;;
84818;SDS011;75053;51.080;13.712;2024-01-30T11:46:16;21.60;;;12.93;;
84818;SDS011;75053;51.080;13.712;2024-01-30T11:48:42;18.70;;;11.57;;
84818;SDS011;75053;51.080;13.712;2024-01-30T11:51:12;23.23;;;12.90;;
84818;SDS011;75053;51.080;13.712;2024-01-30T11:53:38;23.23;;;13.23;;
84818;SDS011;75053;51.080;13.712;2024-01-30T11:56:05;22.97;;;13.67;;
84818;SDS011;75053;51.080;13.712;2024-01-30T11:58:31;18.60;;;12.10;;
84818;SDS011;75053;51.080;13.712;2024-01-30T12:00:56;22.57;;;12.83;;
84818;SDS011;75053;51.080;13.712;2024-01-30T12:03:23;21.07;;;12.73;;
84818;SDS011;75053;51.080;13.712;2024-01-30T12:05:54;20.03;;;13.10;;
84818;SDS011;75053;51.080;13.712;2024-01-30T12:08:26;25.87;;;13.33;;
84818;SDS011;75053;51.080;13.712;2024-01-30T12:10:58;22.87;;;14.50;;
84818;SDS011;75053;51.080;13.712;2024-01-30T12:13:26;22.70;;;13.67;;
84818;SDS011;75053;51.080;13.712;2024-01-30T12:15:52;23.23;;;12.97;;
84818;SDS011;75053;51.080;13.712;2024-01-30T12:18:23;31.10;;;14.23;;
84818;SDS011;75053;51.080;13.712;2024-01-30T12:21:01;23.87;;;13.97;;
84818;SDS011;75053;51.080;13.712;2024-01-30T12:23:27;29.50;;;14.87;;
84818;SDS011;75053;51.080;13.712;2024-01-30T12:25:53;24.53;;;14.03;;
84818;SDS011;75053;51.080;13.712;2024-01-30T12:28:19;23.37;;;14.07;;
84818;SDS011;75053;51.080;13.712;2024-01-30T12:30:45;25.67;;;14.93;;
84818;SDS011;75053;51.080;13.712;2024-01-30T12:33:15;22.30;;;14.97;;
84818;SDS011;75053;51.080;13.712;2024-01-30T12:35:46;23.90;;;14.23;;
84818;SDS011;75053;51.080;13.712;2024-01-30T12:38:13;20.27;;;14.13;;
84818;SDS011;75053;51.080;13.712;2024-01-30T12:40:39;27.87;;;14.37;;
84818;SDS011;75053;51.080;13.712;2024-01-30T12:43:04;22.90;;;13.30;;
84818;SDS011;75053;51.080;13.712;2024-01-30T12:45:30;24.57;;;14.47;;
84818;SDS011;75053;51.080;13.712;2024-01-30T12:47:55;28.50;;;15.07;;
84818;SDS011;75053;51.080;13.712;2024-01-30T12:50:21;24.93;;;15.33;;
84818;SDS011;75053;51.080;13.712;2024-01-30T12:52:47;22.67;;;14.43;;
84818;SDS011;75053;51.080;13.712;2024-01-30T12:55:13;24.33;;;14.63;;
84818;SDS011;75053;51.080;13.712;2024-01-30T12:57:44;25.93;;;14.13;;
84818;SDS011;75053;51.080;13.712;2024-01-30T13:00:09;23.17;;;14.73;;
84818;SDS011;75053;51.080;13.712;2024-01-30T13:02:35;26.77;;;14.27;;
84818;SDS011;75053;51.080;13.712;2024-01-30T13:05:02;24.80;;;14.70;;
84818;SDS011;75053;51.080;13.712;2024-01-30T13:07:28;21.83;;;14.37;;
84818;SDS011;75053;51.080;13.712;2024-01-30T13:09:54;25.67;;;14.37;;
84818;SDS011;75053;51.080;13.712;2024-01-30T13:12:19;24.57;;;14.60;;
84818;SDS011;75053;51.080;13.712;2024-01-30T13:14:45;23.70;;;14.60;;
84818;SDS011;75053;51.080;13.712;2024-01-30T13:17:10;23.97;;;15.03;;
84818;SDS011;75053;51.080;13.712;2024-01-30T13:19:36;23.57;;;15.17;;
84818;SDS011;75053;51.080;13.712;2024-01-30T13:22:01;24.00;;;14.77;;
84818;SDS011;75053;51.080;13.712;2024-01-30T13:24:27;21.53;;;14.17;;
84818;SDS011;75053;51.080;13.712;2024-01-30T13:26:52;31.77;;;16.53;;
84818;SDS011;75053;51.080;13.712;2024-01-30T13:29:18;23.67;;;14.17;;
84818;SDS011;75053;51.080;13.712;2024-01-30T13:31:44;23.10;;;14.20;;
84818;SDS011;75053;51.080;13.712;2024-01-30T13:34:11;26.23;;;14.60;;
84818;SDS011;75053;51.080;13.712;2024-01-30T13:36:37;23.77;;;14.77;;
84818;SDS011;75053;51.080;13.712;2024-01-30T13:39:03;28.03;;;15.20;;
84818;SDS011;75053;51.080;13.712;2024-01-30T13:41:32;23.27;;;15.50;;
84818;SDS011;75053;51.080;13.712;2024-01-30T13:43:57;29.70;;;15.63;;
84818;SDS011;75053;51.080;13.712;2024-01-30T13:46:23;20.20;;;13.30;;
84818;SDS011;75053;51.080;13.712;2024-01-30T13:48:48;25.53;;;16.13;;
84818;SDS011;75053;51.080;13.712;2024-01-30T13:51:14;27.83;;;16.40;;
84818;SDS011;75053;51.080;13.712;2024-01-30T13:53:43;26.47;;;14.83;;
84818;SDS011;75053;51.080;13.712;2024-01-30T13:56:09;28.03;;;15.47;;
84818;SDS011;75053;51.080;13.712;2024-01-30T13:58:34;24.97;;;15.67;;
84818;SDS011;75053;51.080;13.712;2024-01-30T14:01:01;27.17;;;15.93;;
84818;SDS011;75053;51.080;13.712;2024-01-30T14:03:27;24.97;;;15.90;;
84818;SDS011;75053;51.080;13.712;2024-01-30T14:05:55;23.63;;;15.37;;
84818;SDS011;75053;51.080;13.712;2024-01-30T14:08:21;28.63;;;17.60;;